IBE3436 LEMD-LFPO
Flight info
| Callsign | IBE3436 |
|---|---|
| Flight time | 1h 26m |
| Altitude | 34000 |
| Route | RBO N867 OSTIX DCT GASMO DCT DGO DCT ABRIX DCT CNA DCT TUDRA/N0394F280 DCT BEVOL UT158 AMB |
| Aircraft | A320/M-SDE3FGHIRWY/LB1 |
Departure
| Time | 2026-05-04 16:22 |
|---|---|
| Airport | Adolfo Suárez Madrid–Barajas Airport (LEMD) |
Arrival
| Time | 2026-05-04 17:48 |
|---|---|
| Airport | Paris-Orly Airport (LFPO) |
| Time | Latitude | Longitude | Altitude | Speed | Heading |
|---|---|---|---|---|---|
| 2026-05-04 15:58 | 40.48677 | -3.59160 | 2027 ft | 0 kts | 91° |
| 2026-05-04 16:10 | 40.48681 | -3.59207 | 2032 ft | 4 kts | 105° |
| 2026-05-04 16:11 | 40.48715 | -3.59264 | 2031 ft | 0 kts | 180° |
| 2026-05-04 16:14 | 40.48633 | -3.59263 | 2025 ft | 12 kts | 179° |
| 2026-05-04 16:14 | 40.48547 | -3.59176 | 2027 ft | 10 kts | 89° |
| 2026-05-04 16:15 | 40.48583 | -3.58801 | 2022 ft | 9 kts | 34° |
| 2026-05-04 16:16 | 40.48596 | -3.58467 | 2014 ft | 25 kts | 90° |
| 2026-05-04 16:16 | 40.48630 | -3.57926 | 1999 ft | 12 kts | 12° |
| 2026-05-04 16:17 | 40.48763 | -3.57779 | 1993 ft | 24 kts | 89° |
| 2026-05-04 16:18 | 40.48767 | -3.56938 | 1982 ft | 35 kts | 89° |
| 2026-05-04 16:18 | 40.48767 | -3.56612 | 1974 ft | 36 kts | 90° |
| 2026-05-04 16:19 | 40.48925 | -3.56139 | 1959 ft | 22 kts | 360° |
| 2026-05-04 16:19 | 40.49290 | -3.56141 | 1959 ft | 25 kts | 360° |
| 2026-05-04 16:20 | 40.49411 | -3.55876 | 1962 ft | 17 kts | 90° |
| 2026-05-04 16:20 | 40.49396 | -3.55698 | 1962 ft | 11 kts | 143° |
| 2026-05-04 16:21 | 40.47700 | -3.53972 | 1934 ft | 187 kts | 141° |
| 2026-05-04 16:22 | 40.45651 | -3.51906 | 3328 ft | 189 kts | 146° |
| 2026-05-04 16:22 | 40.42875 | -3.47330 | 4352 ft | 258 kts | 96° |
| 2026-05-04 16:23 | 40.43386 | -3.39855 | 6467 ft | 287 kts | 57° |
| 2026-05-04 16:24 | 40.48163 | -3.31147 | 9650 ft | 302 kts | 53° |
| 2026-05-04 16:25 | 40.50728 | -3.26508 | 10517 ft | 334 kts | 53° |
| 2026-05-04 16:26 | 40.57796 | -3.18119 | 12936 ft | 356 kts | 13° |
| 2026-05-04 16:26 | 40.65110 | -3.18649 | 14916 ft | 357 kts | 343° |
| 2026-05-04 16:27 | 40.69985 | -3.20104 | 16175 ft | 362 kts | 343° |
| 2026-05-04 16:28 | 40.77438 | -3.22307 | 18019 ft | 370 kts | 342° |
| 2026-05-04 16:28 | 40.85053 | -3.24561 | 19626 ft | 378 kts | 343° |
| 2026-05-04 16:29 | 40.95772 | -3.22461 | 21665 ft | 402 kts | 7° |
| 2026-05-04 16:30 | 41.04123 | -3.20441 | 23139 ft | 410 kts | 5° |
| 2026-05-04 16:31 | 41.09802 | -3.19188 | 24034 ft | 416 kts | 5° |
| 2026-05-04 16:31 | 41.18456 | -3.17262 | 25136 ft | 425 kts | 5° |
| 2026-05-04 16:32 | 41.27289 | -3.15264 | 26159 ft | 433 kts | 5° |
| 2026-05-04 16:33 | 41.33275 | -3.13906 | 26846 ft | 439 kts | 5° |
| 2026-05-04 16:33 | 41.39332 | -3.12527 | 27506 ft | 444 kts | 5° |
| 2026-05-04 16:34 | 41.45460 | -3.11139 | 28137 ft | 449 kts | 4° |
| 2026-05-04 16:34 | 41.48552 | -3.10439 | 28442 ft | 452 kts | 4° |
| 2026-05-04 16:35 | 41.57890 | -3.08318 | 29347 ft | 459 kts | 5° |
| 2026-05-04 16:35 | 41.67405 | -3.06167 | 30134 ft | 465 kts | 5° |
| 2026-05-04 16:36 | 41.70606 | -3.05440 | 30360 ft | 467 kts | 5° |
| 2026-05-04 16:36 | 41.77042 | -3.03967 | 30764 ft | 471 kts | 5° |
| 2026-05-04 16:37 | 41.83532 | -3.02463 | 31196 ft | 474 kts | 5° |
| 2026-05-04 16:37 | 41.86778 | -3.01711 | 31486 ft | 473 kts | 5° |
| 2026-05-04 16:37 | 41.93269 | -3.00208 | 32041 ft | 473 kts | 5° |
| 2026-05-04 16:38 | 41.99757 | -2.98703 | 32578 ft | 474 kts | 6° |
| 2026-05-04 16:39 | 42.09502 | -2.96444 | 33397 ft | 474 kts | 5° |
| 2026-05-04 16:39 | 42.16007 | -2.94939 | 33938 ft | 475 kts | 5° |
| 2026-05-04 16:40 | 42.28801 | -2.91950 | 33988 ft | 464 kts | 6° |
| 2026-05-04 16:41 | 42.44698 | -2.87936 | 33992 ft | 467 kts | 15° |
| 2026-05-04 16:42 | 42.53437 | -2.81941 | 33987 ft | 471 kts | 27° |
| 2026-05-04 16:43 | 42.59164 | -2.77626 | 33998 ft | 471 kts | 27° |
| 2026-05-04 16:43 | 42.67720 | -2.71176 | 33999 ft | 470 kts | 27° |
| 2026-05-04 16:45 | 42.84840 | -2.58116 | 33994 ft | 469 kts | 28° |
| 2026-05-04 16:46 | 42.99089 | -2.47232 | 34012 ft | 469 kts | 28° |
| 2026-05-04 16:47 | 43.10468 | -2.38469 | 34014 ft | 469 kts | 28° |
| 2026-05-04 16:48 | 43.21857 | -2.29661 | 34033 ft | 470 kts | 28° |
| 2026-05-04 16:49 | 43.33249 | -2.20822 | 34008 ft | 471 kts | 28° |
| 2026-05-04 16:50 | 43.44652 | -2.11939 | 34019 ft | 471 kts | 29° |
| 2026-05-04 16:51 | 43.53201 | -2.05244 | 34016 ft | 471 kts | 29° |
| 2026-05-04 16:52 | 43.64547 | -1.96335 | 34013 ft | 471 kts | 29° |
| 2026-05-04 16:53 | 43.73083 | -1.89607 | 33984 ft | 471 kts | 30° |
| 2026-05-04 16:54 | 43.84470 | -1.80581 | 33995 ft | 471 kts | 30° |
| 2026-05-04 16:55 | 44.01474 | -1.67042 | 33982 ft | 470 kts | 30° |
| 2026-05-04 16:56 | 44.15644 | -1.55685 | 33977 ft | 470 kts | 30° |
| 2026-05-04 16:57 | 44.24165 | -1.48839 | 33957 ft | 471 kts | 30° |
| 2026-05-04 16:58 | 44.35522 | -1.39660 | 33963 ft | 472 kts | 30° |
| 2026-05-04 17:00 | 44.52513 | -1.25851 | 33965 ft | 471 kts | 31° |
| 2026-05-04 17:01 | 44.65743 | -1.15026 | 33981 ft | 470 kts | 31° |
| 2026-05-04 17:02 | 44.77044 | -1.05745 | 33948 ft | 473 kts | 31° |
| 2026-05-04 17:03 | 44.85549 | -0.98726 | 33952 ft | 472 kts | 31° |
| 2026-05-04 17:03 | 44.94060 | -0.91679 | 33955 ft | 473 kts | 31° |
| 2026-05-04 17:04 | 45.05423 | -0.82252 | 33967 ft | 473 kts | 32° |
| 2026-05-04 17:05 | 45.16767 | -0.72760 | 33930 ft | 474 kts | 32° |
| 2026-05-04 17:06 | 45.25287 | -0.65621 | 33948 ft | 474 kts | 32° |
| 2026-05-04 17:07 | 45.32845 | -0.59261 | 33955 ft | 474 kts | 32° |
| 2026-05-04 17:07 | 45.39434 | -0.53700 | 33958 ft | 474 kts | 33° |
| 2026-05-04 17:08 | 45.47937 | -0.46502 | 33952 ft | 474 kts | 33° |
| 2026-05-04 17:09 | 45.53606 | -0.41690 | 33957 ft | 474 kts | 33° |
| 2026-05-04 17:09 | 45.59269 | -0.36873 | 33958 ft | 474 kts | 33° |
| 2026-05-04 17:10 | 45.72524 | -0.23167 | 33937 ft | 469 kts | 44° |
| 2026-05-04 17:11 | 45.77504 | -0.17106 | 33939 ft | 469 kts | 44° |
| 2026-05-04 17:12 | 45.84921 | -0.08026 | 33932 ft | 469 kts | 44° |
| 2026-05-04 17:13 | 45.97316 | 0.07252 | 33917 ft | 471 kts | 44° |
| 2026-05-04 17:14 | 46.07273 | 0.19558 | 33919 ft | 472 kts | 44° |
| 2026-05-04 17:15 | 46.14729 | 0.28823 | 33918 ft | 472 kts | 44° |
| 2026-05-04 17:16 | 46.24663 | 0.41234 | 33893 ft | 472 kts | 44° |
| 2026-05-04 17:17 | 46.34570 | 0.53648 | 33909 ft | 473 kts | 44° |
| 2026-05-04 17:18 | 46.44524 | 0.66195 | 33918 ft | 474 kts | 44° |
| 2026-05-04 17:19 | 46.55034 | 0.77703 | 33921 ft | 479 kts | 25° |
| 2026-05-04 17:19 | 46.61423 | 0.80439 | 33925 ft | 480 kts | 12° |
| 2026-05-04 17:20 | 46.67953 | 0.82489 | 33897 ft | 480 kts | 12° |
| 2026-05-04 17:20 | 46.77767 | 0.85611 | 33904 ft | 481 kts | 12° |
| 2026-05-04 17:21 | 46.90955 | 0.89805 | 32379 ft | 487 kts | 12° |
| 2026-05-04 17:22 | 46.94249 | 0.90851 | 31783 ft | 483 kts | 12° |
| 2026-05-04 17:22 | 46.97476 | 0.91881 | 31211 ft | 479 kts | 12° |
| 2026-05-04 17:23 | 47.07073 | 0.94955 | 29684 ft | 462 kts | 13° |
| 2026-05-04 17:23 | 47.10203 | 0.95950 | 29131 ft | 458 kts | 12° |
| 2026-05-04 17:23 | 47.16375 | 0.97911 | 28127 ft | 447 kts | 12° |
| 2026-05-04 17:24 | 47.19400 | 0.98881 | 27658 ft | 441 kts | 12° |
| 2026-05-04 17:24 | 47.28195 | 1.01709 | 26326 ft | 425 kts | 12° |
| 2026-05-04 17:25 | 47.31075 | 1.02636 | 25888 ft | 421 kts | 12° |
| 2026-05-04 17:25 | 47.36748 | 1.04464 | 24980 ft | 414 kts | 12° |
| 2026-05-04 17:26 | 47.42336 | 1.06266 | 24039 ft | 409 kts | 13° |
| 2026-05-04 17:26 | 47.50176 | 1.10178 | 22719 ft | 384 kts | 19° |
| 2026-05-04 17:27 | 47.55148 | 1.12720 | 21772 ft | 375 kts | 19° |
| 2026-05-04 17:27 | 47.60054 | 1.15203 | 20925 ft | 370 kts | 19° |
| 2026-05-04 17:28 | 47.64891 | 1.17654 | 20085 ft | 365 kts | 19° |
| 2026-05-04 17:29 | 47.72045 | 1.21283 | 18843 ft | 360 kts | 19° |
| 2026-05-04 17:29 | 47.79101 | 1.24896 | 17621 ft | 354 kts | 19° |
| 2026-05-04 17:30 | 47.86010 | 1.28436 | 16496 ft | 344 kts | 19° |
| 2026-05-04 17:31 | 47.90484 | 1.30737 | 15898 ft | 340 kts | 19° |
| 2026-05-04 17:31 | 47.97146 | 1.34163 | 14785 ft | 334 kts | 19° |
| 2026-05-04 17:32 | 48.01509 | 1.36414 | 13827 ft | 329 kts | 19° |
| 2026-05-04 17:33 | 48.07648 | 1.40425 | 12672 ft | 317 kts | 35° |
| 2026-05-04 17:33 | 48.09469 | 1.42281 | 12425 ft | 316 kts | 34° |
| 2026-05-04 17:34 | 48.14832 | 1.47691 | 11768 ft | 302 kts | 34° |
| 2026-05-04 17:34 | 48.16581 | 1.49455 | 11640 ft | 302 kts | 35° |
| 2026-05-04 17:35 | 48.21771 | 1.54711 | 11219 ft | 299 kts | 35° |
| 2026-05-04 17:35 | 48.25197 | 1.58192 | 10936 ft | 296 kts | 35° |
| 2026-05-04 17:35 | 48.26900 | 1.59924 | 10795 ft | 295 kts | 35° |
| 2026-05-04 17:36 | 48.28598 | 1.61652 | 10655 ft | 294 kts | 35° |
| 2026-05-04 17:36 | 48.30291 | 1.63374 | 10526 ft | 294 kts | 35° |
| 2026-05-04 17:36 | 48.31978 | 1.65090 | 10379 ft | 292 kts | 35° |
| 2026-05-04 17:36 | 48.33659 | 1.66804 | 10238 ft | 292 kts | 35° |
| 2026-05-04 17:37 | 48.35335 | 1.68519 | 10102 ft | 291 kts | 35° |
| 2026-05-04 17:37 | 48.37001 | 1.70226 | 9979 ft | 290 kts | 35° |
| 2026-05-04 17:37 | 48.38671 | 1.71936 | 9663 ft | 294 kts | 35° |
| 2026-05-04 17:37 | 48.40361 | 1.73663 | 9278 ft | 291 kts | 34° |
| 2026-05-04 17:38 | 48.42023 | 1.75358 | 8833 ft | 287 kts | 35° |
| 2026-05-04 17:38 | 48.43668 | 1.77040 | 8254 ft | 283 kts | 35° |
| 2026-05-04 17:38 | 48.45282 | 1.78693 | 7706 ft | 278 kts | 35° |
| 2026-05-04 17:38 | 48.46872 | 1.80325 | 7248 ft | 275 kts | 35° |
| 2026-05-04 17:39 | 48.50020 | 1.83558 | 6369 ft | 274 kts | 35° |
| 2026-05-04 17:39 | 48.51572 | 1.85157 | 5910 ft | 274 kts | 35° |
| 2026-05-04 17:39 | 48.53134 | 1.86768 | 5581 ft | 269 kts | 35° |
| 2026-05-04 17:40 | 48.54635 | 1.88315 | 5480 ft | 254 kts | 35° |
| 2026-05-04 17:40 | 48.56053 | 1.89775 | 5401 ft | 240 kts | 35° |
| 2026-05-04 17:40 | 48.57334 | 1.91267 | 5334 ft | 226 kts | 47° |
| 2026-05-04 17:40 | 48.58224 | 1.93135 | 5245 ft | 214 kts | 62° |
| 2026-05-04 17:41 | 48.58912 | 1.95053 | 5162 ft | 202 kts | 61° |
| 2026-05-04 17:41 | 48.59564 | 1.96862 | 5087 ft | 192 kts | 62° |
| 2026-05-04 17:41 | 48.60196 | 1.98620 | 4989 ft | 189 kts | 62° |
| 2026-05-04 17:41 | 48.60823 | 2.00367 | 4897 ft | 189 kts | 62° |
| 2026-05-04 17:42 | 48.61448 | 2.02110 | 4683 ft | 188 kts | 61° |
| 2026-05-04 17:42 | 48.62071 | 2.03848 | 4447 ft | 187 kts | 61° |
| 2026-05-04 17:42 | 48.62691 | 2.05578 | 4200 ft | 187 kts | 61° |
| 2026-05-04 17:42 | 48.63308 | 2.07302 | 3947 ft | 187 kts | 61° |
| 2026-05-04 17:43 | 48.63928 | 2.09035 | 3696 ft | 188 kts | 61° |
| 2026-05-04 17:43 | 48.64553 | 2.10782 | 3437 ft | 188 kts | 61° |
| 2026-05-04 17:43 | 48.65161 | 2.12483 | 3191 ft | 179 kts | 61° |
| 2026-05-04 17:43 | 48.65734 | 2.14090 | 2952 ft | 168 kts | 61° |
| 2026-05-04 17:44 | 48.66087 | 2.15079 | 2827 ft | 157 kts | 61° |
| 2026-05-04 17:44 | 48.66588 | 2.16482 | 2614 ft | 147 kts | 61° |
| 2026-05-04 17:44 | 48.67065 | 2.17820 | 2421 ft | 143 kts | 61° |
| 2026-05-04 17:44 | 48.67536 | 2.19142 | 2224 ft | 141 kts | 61° |
| 2026-05-04 17:45 | 48.67999 | 2.20442 | 2036 ft | 141 kts | 61° |
| 2026-05-04 17:45 | 48.68464 | 2.21746 | 1849 ft | 140 kts | 62° |
| 2026-05-04 17:45 | 48.68924 | 2.23042 | 1657 ft | 140 kts | 61° |
| 2026-05-04 17:45 | 48.69386 | 2.24333 | 1467 ft | 140 kts | 61° |
| 2026-05-04 17:46 | 48.69848 | 2.25630 | 1264 ft | 141 kts | 61° |
| 2026-05-04 17:46 | 48.70312 | 2.26925 | 1079 ft | 140 kts | 62° |
| 2026-05-04 17:46 | 48.70769 | 2.28229 | 889 ft | 140 kts | 61° |
| 2026-05-04 17:46 | 48.71240 | 2.29547 | 716 ft | 141 kts | 61° |
| 2026-05-04 17:47 | 48.71702 | 2.30848 | 518 ft | 141 kts | 61° |
| 2026-05-04 17:47 | 48.72163 | 2.32150 | 334 ft | 141 kts | 60° |
| 2026-05-04 17:47 | 48.72595 | 2.33374 | 295 ft | 114 kts | 62° |
| 2026-05-04 17:47 | 48.72885 | 2.34192 | 293 ft | 62 kts | 62° |
| 2026-05-04 17:48 | 48.72994 | 2.34576 | 291 ft | 29 kts | 80° |
| 2026-05-04 17:48 | 48.73018 | 2.34846 | 293 ft | 23 kts | 82° |
| 2026-05-04 17:48 | 48.73040 | 2.35077 | 292 ft | 19 kts | 83° |
| 2026-05-04 17:48 | 48.73002 | 2.35252 | 292 ft | 18 kts | 131° |
| 2026-05-04 17:49 | 48.72912 | 2.35342 | 292 ft | 12 kts | 130° |
| 2026-05-04 17:49 | 48.72867 | 2.35426 | 292 ft | 10 kts | 159° |
| 2026-05-04 17:49 | 48.72787 | 2.35460 | 291 ft | 14 kts | 164° |
| 2026-05-04 17:49 | 48.72750 | 2.35531 | 294 ft | 8 kts | 84° |
| 2026-05-04 17:50 | 48.72800 | 2.35581 | 294 ft | 9 kts | 352° |
| 2026-05-04 17:50 | 48.72828 | 2.35585 | 292 ft | 3 kts | 35° |
| 2026-05-04 17:50 | 48.72837 | 2.35609 | 294 ft | 2 kts | 65° |
| 2026-05-04 17:50 | 48.72844 | 2.35636 | 291 ft | 4 kts | 66° |
| 2026-05-04 17:51 | 48.72847 | 2.35645 | 291 ft | 0 kts | 66° |